Time;durP1;ratioP1;P1;durP2;ratioP2;P2;SDS_P1;SDS_P2;PMS_P1;PMS_P2;Temp;Humidity;BMP_temperature;BMP_pressure;BME280_temperature;BME280_humidity;BME280_pressure;Samples;Min_cycle;Max_cycle;Signal;HPM_P1;HPM_P2
2023/05/27 00:00:02;;;;;;;7.90;4.65;;;;;;;-142.57;77.48;115900.28;4901553;29;20457;-85
2023/05/27 00:02:29;;;;;;;9.40;4.55;;;;;;;-142.57;77.37;115900.28;4908275;29;20056;-82
2023/05/27 00:04:55;;;;;;;12.80;4.32;;;;;;;-142.57;77.75;115900.28;4901708;29;20040;-82
2023/05/27 00:07:20;;;;;;;12.50;4.18;;;;;;;-142.57;76.49;115900.28;4902107;29;20037;-83
2023/05/27 00:09:46;;;;;;;8.30;4.47;;;;;;;-142.57;75.54;115900.28;4901041;29;20041;-83
2023/05/27 00:12:11;;;;;;;13.82;4.85;;;;;;;-142.57;76.19;115900.28;4901331;29;20043;-82
2023/05/27 00:14:37;;;;;;;11.30;4.40;;;;;;;-142.57;74.77;115900.28;4902382;29;20478;-82
2023/05/27 00:17:03;;;;;;;7.20;3.95;;;;;;;-142.57;77.07;115900.28;4902570;29;20120;-82
2023/05/27 00:19:30;;;;;;;5.18;3.85;;;;;;;-142.57;76.33;115900.28;4900278;29;20132;-83
2023/05/27 00:21:56;;;;;;;10.38;4.30;;;;;;;-142.57;76.94;115900.28;4900125;29;20028;-84
2023/05/27 00:24:22;;;;;;;10.93;4.30;;;;;;;-142.57;78.30;115900.28;4899795;29;20039;-83
2023/05/27 00:26:47;;;;;;;10.15;4.63;;;;;;;-142.57;81.34;115900.28;4883310;29;20036;-84
2023/05/27 00:29:17;;;;;;;7.85;4.47;;;;;;;-142.57;81.95;115900.28;4883362;29;20406;-82
2023/05/27 00:31:42;;;;;;;10.20;5.07;;;;;;;-142.57;83.23;115900.28;4900623;29;20036;-83
2023/05/27 00:34:08;;;;;;;15.32;4.40;;;;;;;-142.57;84.72;115900.28;4900434;29;20036;-85
2023/05/27 00:36:33;;;;;;;8.85;3.72;;;;;;;-142.57;85.59;115900.28;4900007;29;20499;-84
2023/05/27 00:39:00;;;;;;;10.65;4.32;;;;;;;-142.57;85.57;115900.28;4882764;29;20044;-83
2023/05/27 00:41:26;;;;;;;8.50;4.32;;;;;;;-142.57;87.49;115900.28;4899779;29;20036;-83
2023/05/27 00:43:52;;;;;;;7.68;4.25;;;;;;;-142.57;89.06;115900.28;4883446;29;20538;-85
2023/05/27 00:46:18;;;;;;;8.23;3.75;;;;;;;-142.57;91.53;115900.28;4899944;29;20143;-84
2023/05/27 00:48:44;;;;;;;8.80;4.63;;;;;;;-142.57;96.92;115900.28;4899897;29;20065;-84
2023/05/27 00:51:10;;;;;;;9.35;4.68;;;;;;;-142.57;97.09;115900.28;4899904;29;20048;-81
2023/05/27 00:53:42;;;;;;;11.57;4.72;;;;;;;-142.57;96.82;115900.28;4899633;29;20059;-81
2023/05/27 00:56:12;;;;;;;7.60;4.40;;;;;;;-142.57;94.76;115900.28;4899763;29;20043;-84
2023/05/27 00:58:38;;;;;;;10.05;4.57;;;;;;;-142.57;92.74;115900.28;4898632;29;20037;-82
2023/05/27 01:01:05;;;;;;;7.32;4.97;;;;;;;-142.57;92.95;115900.28;4899399;29;20067;-82
2023/05/27 01:03:33;;;;;;;9.13;4.38;;;;;;;-142.57;90.47;115900.28;4898946;29;20109;-83
2023/05/27 01:06:28;;;;;;;9.70;4.50;;;;;;;-142.57;89.45;115900.28;4881112;29;20060;-83
2023/05/27 01:09:26;;;;;;;9.50;5.05;;;;;;;-142.57;90.26;115900.28;4898379;29;20128;-84
2023/05/27 01:12:07;;;;;;;5.88;4.60;;;;;;;-142.57;92.83;115900.28;4898528;29;20043;-84
2023/05/27 01:14:38;;;;;;;8.90;4.63;;;;;;;-142.57;94.23;115900.28;4898644;29;20048;-85
2023/05/27 01:17:06;;;;;;;8.88;5.03;;;;;;;-142.57;95.22;115900.28;4882581;29;20035;-84
2023/05/27 01:19:36;;;;;;;14.18;5.30;;;;;;;-142.57;94.81;115900.28;4898674;29;20029;-83
2023/05/27 01:22:04;;;;;;;10.98;5.40;;;;;;;-142.57;96.29;115900.28;4899368;29;20044;-83
2023/05/27 01:24:31;;;;;;;12.40;5.15;;;;;;;-142.57;95.82;115900.28;4881466;29;20431;-81
2023/05/27 01:26:56;;;;;;;5.85;4.72;;;;;;;-142.57;95.14;115900.28;4897689;29;20127;-82
2023/05/27 01:29:22;;;;;;;12.68;4.88;;;;;;;-142.57;94.41;115900.28;4880995;29;20080;-83
2023/05/27 01:31:55;;;;;;;14.75;5.53;;;;;;;-142.57;92.80;115900.28;4897748;29;20032;-81
2023/05/27 01:34:30;;;;;;;9.77;5.22;;;;;;;-142.57;92.85;115900.28;4880661;29;20517;-83
2023/05/27 01:37:00;;;;;;;14.65;5.80;;;;;;;-142.57;93.56;115900.28;4897960;29;20119;-82
2023/05/27 01:39:27;;;;;;;10.82;6.05;;;;;;;-142.57;93.60;115900.28;4881190;29;20072;-82
2023/05/27 01:41:53;;;;;;;14.15;7.05;;;;;;;-142.57;93.13;115900.28;4881011;29;20037;-82
2023/05/27 01:44:19;;;;;;;11.52;5.95;;;;;;;-142.57;91.65;115900.28;4881459;29;20044;-82
2023/05/27 01:46:46;;;;;;;14.15;7.00;;;;;;;-142.57;92.40;115900.28;4880819;29;20477;-83
2023/05/27 01:49:12;;;;;;;15.05;7.63;;;;;;;-142.57;93.01;115900.28;4880542;29;20493;-83
2023/05/27 01:51:37;;;;;;;11.32;7.40;;;;;;;-142.57;92.46;115900.28;4897645;29;20033;-84
2023/05/27 01:54:03;;;;;;;17.30;8.65;;;;;;;-142.57;93.53;115900.28;4896992;29;20045;-82
2023/05/27 01:56:29;;;;;;;27.65;9.85;;;;;;;-142.57;96.53;115900.28;4880811;29;20036;-82
2023/05/27 01:58:55;;;;;;;21.95;11.27;;;;;;;-142.57;98.60;115900.28;4880729;29;20039;-83
2023/05/27 02:01:28;;;;;;;22.58;10.75;;;;;;;-142.57;100.00;115900.28;4880397;29;20124;-82
2023/05/27 02:03:53;;;;;;;18.23;11.05;;;;;;;-142.57;100.00;115900.28;4880314;29;20570;-82
2023/05/27 02:06:19;;;;;;;16.33;10.43;;;;;;;-142.57;100.00;115900.28;4880107;29;20041;-83
2023/05/27 02:08:45;;;;;;;16.70;11.30;;;;;;;-142.57;100.00;115900.28;4880449;29;20131;-83
2023/05/27 02:11:11;;;;;;;19.48;11.00;;;;;;;-142.57;100.00;115900.28;4884438;29;20100;-82
2023/05/27 02:13:37;;;;;;;18.92;12.00;;;;;;;-142.57;100.00;115900.28;4901257;29;20036;-83
2023/05/27 02:16:02;;;;;;;20.80;10.18;;;;;;;-142.57;100.00;115900.28;4901162;29;20040;-82
2023/05/27 02:18:28;;;;;;;19.35;11.43;;;;;;;-142.57;100.00;115900.28;4901261;29;20040;-83
2023/05/27 02:20:53;;;;;;;22.65;11.02;;;;;;;-142.57;100.00;115900.28;4868700;29;20430;-83
2023/05/27 02:23:19;;;;;;;21.23;11.02;;;;;;;-142.57;100.00;115900.28;4901785;29;20029;-82
2023/05/27 02:25:45;;;;;;;24.98;11.68;;;;;;;-142.57;100.00;115900.28;4884303;29;20028;-83
2023/05/27 02:28:11;;;;;;;22.08;10.95;;;;;;;-142.57;100.00;115900.28;4900536;29;20059;-84
2023/05/27 02:30:37;;;;;;;17.20;9.82;;;;;;;-142.57;100.00;115900.28;4884042;29;20064;-82
2023/05/27 02:33:03;;;;;;;18.17;9.70;;;;;;;-142.57;100.00;115900.28;4902457;29;20029;-82
2023/05/27 02:35:28;;;;;;;14.90;10.13;;;;;;;-142.57;100.00;115900.28;4902083;29;20049;-82
2023/05/27 02:37:55;;;;;;;15.25;9.75;;;;;;;-142.57;100.00;115900.28;4885313;29;20053;-82
2023/05/27 02:40:28;;;;;;;19.38;10.93;;;;;;;-142.57;100.00;115900.28;4885169;29;20025;-82
2023/05/27 02:42:58;;;;;;;17.05;11.65;;;;;;;-142.57;100.00;115900.28;4885481;29;20049;-80
2023/05/27 02:45:23;;;;;;;18.08;12.05;;;;;;;-142.57;100.00;115900.28;4901895;29;20045;-82
2023/05/27 02:47:50;;;;;;;25.92;12.10;;;;;;;-142.57;100.00;115900.28;4885439;29;20029;-82
2023/05/27 02:50:19;;;;;;;18.80;11.63;;;;;;;-142.57;100.00;115900.28;4885158;29;20136;-83
2023/05/27 02:52:45;;;;;;;18.73;11.48;;;;;;;-142.57;100.00;115900.28;4885031;29;20047;-82
2023/05/27 02:55:10;;;;;;;24.67;11.43;;;;;;;-142.57;100.00;115900.28;4885048;29;20045;-81
2023/05/27 02:57:36;;;;;;;20.45;12.18;;;;;;;-142.57;100.00;115900.28;4870653;29;20045;-83
2023/05/27 03:00:03;;;;;;;22.05;12.38;;;;;;;-142.57;100.00;115900.28;4896624;29;20067;-79
2023/05/27 03:02:29;;;;;;;21.83;11.82;;;;;;;-142.57;100.00;115900.28;4919683;29;20065;-80
2023/05/27 03:04:55;;;;;;;22.23;11.50;;;;;;;-142.57;100.00;115900.28;4918895;29;20048;-81
2023/05/27 03:07:21;;;;;;;17.70;11.43;;;;;;;-142.57;100.00;115900.28;4904821;29;20055;-82
2023/05/27 03:09:46;;;;;;;19.33;10.48;;;;;;;-142.57;100.00;115900.28;4900470;29;20475;-80
2023/05/27 03:12:12;;;;;;;22.83;10.27;;;;;;;-142.57;100.00;115900.28;4906056;29;20092;-80
2023/05/27 03:14:38;;;;;;;17.45;10.60;;;;;;;-142.57;100.00;115900.28;4922631;29;20037;-81
2023/05/27 03:17:03;;;;;;;23.17;10.43;;;;;;;-142.57;100.00;115900.28;4906247;29;20108;-79
2023/05/27 03:19:30;;;;;;;21.25;11.30;;;;;;;-142.57;100.00;115900.28;4890445;29;20037;-81
2023/05/27 03:21:56;;;;;;;19.50;10.85;;;;;;;-142.57;100.00;115900.28;4902314;29;20048;-81
2023/05/27 03:24:25;;;;;;;13.63;10.35;;;;;;;-142.57;100.00;115900.28;4905847;29;20037;-82
2023/05/27 03:26:51;;;;;;;17.15;10.93;;;;;;;-142.57;100.00;115900.28;4886962;29;20028;-81
2023/05/27 03:29:17;;;;;;;20.88;10.85;;;;;;;-142.57;100.00;115900.28;4886712;29;20040;-80
2023/05/27 03:31:45;;;;;;;24.75;11.60;;;;;;;-142.57;100.00;115900.28;4902226;29;20059;-81
2023/05/27 03:34:14;;;;;;;22.73;10.55;;;;;;;-142.57;100.00;115900.28;4883764;29;20469;-81
2023/05/27 03:36:42;;;;;;;19.52;10.25;;;;;;;-142.57;100.00;115900.28;4900004;29;20182;-82
2023/05/27 03:39:08;;;;;;;23.95;10.63;;;;;;;-142.57;100.00;115900.28;4883394;29;20033;-81
2023/05/27 03:41:38;;;;;;;18.10;10.70;;;;;;;-142.57;100.00;115900.28;4882886;29;20056;-85
2023/05/27 03:44:04;;;;;;;18.10;12.23;;;;;;;-142.57;100.00;115900.28;4883078;29;20043;-80
2023/05/27 03:46:30;;;;;;;23.65;11.45;;;;;;;-142.57;100.00;115900.28;4882829;29;20095;-81
2023/05/27 03:48:58;;;;;;;22.70;11.38;;;;;;;-142.57;100.00;115900.28;4882629;29;20044;-83
2023/05/27 03:51:24;;;;;;;20.83;12.27;;;;;;;-142.57;100.00;115900.28;4882949;29;20040;-84
2023/05/27 03:53:57;;;;;;;26.58;11.50;;;;;;;-142.57;100.00;115900.28;4882589;29;20589;-81
2023/05/27 03:56:23;;;;;;;23.45;11.65;;;;;;;-142.57;100.00;115900.28;4878014;29;20048;-83
2023/05/27 03:58:50;;;;;;;25.38;11.95;;;;;;;-142.57;100.00;115900.28;4882466;29;20399;-83
2023/05/27 04:01:16;;;;;;;26.13;11.70;;;;;;;-142.57;100.00;115900.28;4899467;29;20068;-82
2023/05/27 04:03:43;;;;;;;29.00;12.13;;;;;;;-142.57;100.00;115900.28;4867285;29;20162;-83
2023/05/27 04:06:09;;;;;;;27.73;12.68;;;;;;;-142.57;100.00;115900.28;4900032;29;20120;-84
2023/05/27 04:08:35;;;;;;;27.42;12.43;;;;;;;-142.57;100.00;115900.28;4901001;29;20176;-80
2023/05/27 04:11:02;;;;;;;22.90;11.43;;;;;;;-142.57;100.00;115900.28;4912963;29;20036;-81
2023/05/27 04:13:28;;;;;;;25.05;11.52;;;;;;;-142.57;100.00;115900.28;4886620;29;20044;-81
2023/05/27 04:15:53;;;;;;;27.27;12.00;;;;;;;-142.57;100.00;115900.28;4899419;29;20041;-82
2023/05/27 04:18:20;;;;;;;26.33;11.50;;;;;;;-142.57;100.00;115900.28;4899974;29;20032;-81
2023/05/27 04:20:47;;;;;;;23.10;10.40;;;;;;;-142.57;100.00;115900.28;4899390;29;20111;-83
2023/05/27 04:23:13;;;;;;;22.85;11.40;;;;;;;-142.57;100.00;115900.28;4899565;29;20063;-81
2023/05/27 04:25:40;;;;;;;29.35;11.65;;;;;;;-142.57;100.00;115900.28;4882445;29;20044;-82
2023/05/27 04:28:09;;;;;;;33.58;12.43;;;;;;;-142.57;100.00;115900.28;4882711;29;20040;-82
2023/05/27 04:30:39;;;;;;;24.88;11.55;;;;;;;-142.57;100.00;115900.28;4882090;29;20071;-81
2023/05/27 04:33:11;;;;;;;32.75;11.68;;;;;;;-142.57;100.00;115900.28;4882527;29;20100;-82
2023/05/27 04:35:36;;;;;;;27.70;11.27;;;;;;;-142.57;100.00;115900.28;4882340;29;20048;-82
2023/05/27 04:38:03;;;;;;;27.95;12.52;;;;;;;-142.57;100.00;115900.28;4882141;29;20524;-83
2023/05/27 04:40:38;;;;;;;26.17;11.88;;;;;;;-142.57;100.00;115900.28;4882306;29;20139;-83
2023/05/27 04:43:26;;;;;;;20.17;11.35;;;;;;;-142.57;100.00;115900.28;4898209;29;20054;-81
2023/05/27 04:45:51;;;;;;;22.75;11.70;;;;;;;-142.57;100.00;115900.28;4881503;29;20489;-80
2023/05/27 04:48:17;;;;;;;18.05;11.65;;;;;;;-142.57;100.00;115900.28;4881611;29;20041;-84
2023/05/27 04:50:44;;;;;;;23.55;11.43;;;;;;;-142.57;100.00;115900.28;4882066;29;20069;-83
2023/05/27 04:53:09;;;;;;;28.33;11.30;;;;;;;-142.57;100.00;115900.28;4881502;29;20121;-84
2023/05/27 04:55:35;;;;;;;23.73;10.93;;;;;;;-142.57;100.00;115900.28;4881641;29;20051;-83
2023/05/27 04:58:05;;;;;;;18.08;11.02;;;;;;;-142.57;100.00;115900.28;4881487;29;20118;-81
2023/05/27 05:00:49;;;;;;;29.23;12.48;;;;;;;-142.57;100.00;115900.28;4881711;29;20459;-84
2023/05/27 05:03:22;;;;;;;24.55;12.48;;;;;;;-142.57;100.00;115900.28;4882609;29;20041;-83
2023/05/27 05:05:52;;;;;;;27.40;13.50;;;;;;;-142.57;100.00;115900.28;4882696;29;20104;-84
2023/05/27 05:08:19;;;;;;;23.35;13.07;;;;;;;-142.57;100.00;115900.28;4882712;29;20142;-83
2023/05/27 05:10:50;;;;;;;24.05;12.70;;;;;;;-142.57;100.00;115900.28;4883114;29;20455;-83
2023/05/27 05:13:17;;;;;;;21.13;13.30;;;;;;;-142.57;100.00;115900.28;4883436;29;20116;-84
2023/05/27 05:15:45;;;;;;;26.98;12.57;;;;;;;-142.57;100.00;115900.28;4884938;29;20040;-86
2023/05/27 05:18:12;;;;;;;22.65;12.65;;;;;;;-142.57;100.00;115900.28;4903516;23;20468;-83
2023/05/27 05:20:38;;;;;;;24.10;14.05;;;;;;;-142.57;100.00;115900.28;4882957;29;20096;-83
2023/05/27 05:23:07;;;;;;;24.80;15.00;;;;;;;-142.57;100.00;115900.28;4880415;29;20068;-86
2023/05/27 05:25:37;;;;;;;22.80;15.32;;;;;;;-142.57;100.00;115900.28;4879905;29;20193;-82
2023/05/27 05:28:05;;;;;;;23.38;15.88;;;;;;;-142.57;100.00;115900.28;4878600;29;20079;-82
2023/05/27 05:30:31;;;;;;;26.02;16.02;;;;;;;-142.57;100.00;115900.28;4879208;29;20040;-81
2023/05/27 05:32:57;;;;;;;29.52;16.88;;;;;;;-142.57;100.00;115900.28;4878585;29;20052;-81
2023/05/27 05:35:26;;;;;;;28.67;18.17;;;;;;;-142.57;100.00;115900.28;4878898;29;20036;-81
2023/05/27 05:37:59;;;;;;;;;;;;;;;-142.57;100.00;115900.28;4879377;29;20472;-84
2023/05/27 05:40:24;;;;;;;40.00;20.02;;;;;;;-142.57;100.00;115900.28;4881179;29;19920;-84
2023/05/27 05:43:05;;;;;;;33.88;19.35;;;;;;;-142.57;100.00;115900.28;4880185;29;20044;-84
2023/05/27 05:45:33;;;;;;;30.60;19.85;;;;;;;-142.57;100.00;115900.28;4880835;29;20033;-85
2023/05/27 05:47:59;;;;;;;30.50;19.45;;;;;;;-142.57;100.00;115900.28;4882245;29;20126;-86
2023/05/27 05:50:27;;;;;;;37.78;19.75;;;;;;;-142.57;100.00;115900.28;4867408;29;20048;-83
2023/05/27 05:52:53;;;;;;;38.25;19.95;;;;;;;-142.57;100.00;115900.28;4881126;29;20041;-82
2023/05/27 05:55:19;;;;;;;36.50;20.33;;;;;;;-142.57;100.00;115900.28;4880197;29;20407;-85
2023/05/27 05:57:45;;;;;;;31.20;20.48;;;;;;;-142.57;100.00;115900.28;4880657;29;20041;-83
2023/05/27 06:00:11;;;;;;;27.23;19.15;;;;;;;-142.57;100.00;115900.28;4881439;29;20123;-85
2023/05/27 06:02:43;;;;;;;;;;;;;;;-142.57;100.00;115900.28;4882174;29;20109;-85
2023/05/27 06:05:25;;;;;;;31.38;18.23;;;;;;;-142.57;100.00;115900.28;4880370;29;19924;-81
2023/05/27 06:07:53;;;;;;;30.80;20.20;;;;;;;-142.57;100.00;115900.28;4880431;29;20139;-82
2023/05/27 06:10:19;;;;;;;33.10;19.08;;;;;;;-142.57;100.00;115900.28;4880481;29;20056;-86
2023/05/27 06:12:44;;;;;;;27.45;18.42;;;;;;;-142.57;100.00;115900.28;4879773;29;20113;-82
2023/05/27 06:15:10;;;;;;;30.85;18.95;;;;;;;-142.57;100.00;115900.28;4868055;29;21393;-86
2023/05/27 06:17:39;;;;;;;32.33;19.08;;;;;;;-142.57;100.00;115900.28;4818839;29;20148;-84
2023/05/27 06:20:06;;;;;;;30.42;19.55;;;;;;;-142.57;100.00;115900.28;4853849;29;20124;-83
2023/05/27 06:22:32;;;;;;;30.30;19.30;;;;;;;-142.57;100.00;115900.28;4866161;29;20041;-85
2023/05/27 06:25:30;;;;;;;26.35;18.02;;;;;;;-142.57;100.00;115900.28;4855000;29;20073;-83
2023/05/27 06:27:59;;;;;;;30.30;18.50;;;;;;;-142.57;100.00;115900.28;4870072;29;20060;-84
2023/05/27 06:30:25;;;;;;;35.97;19.90;;;;;;;-142.57;100.00;115900.28;4877224;29;20124;-83
2023/05/27 06:32:55;;;;;;;30.35;19.35;;;;;;;-142.57;100.00;115900.28;4878073;29;20033;-84
2023/05/27 06:35:22;;;;;;;32.45;18.63;;;;;;;-142.57;100.00;115900.28;4878217;29;20045;-83
2023/05/27 06:37:48;;;;;;;30.45;17.98;;;;;;;-142.57;100.00;115900.28;4878566;29;20112;-87
2023/05/27 06:40:14;;;;;;;31.48;17.30;;;;;;;-142.57;100.00;115900.28;4878317;29;20049;-84
2023/05/27 06:45:15;;;;;;;26.17;16.13;;;;;;;-142.57;100.00;115900.28;4903817;29;20064;-90
2023/05/27 06:47:44;;;;;;;29.58;17.83;;;;;;;-142.57;100.00;115900.28;4902592;29;20045;-88
2023/05/27 06:50:11;;;;;;;26.98;17.60;;;;;;;-142.57;100.00;115900.28;4903065;29;20033;-87
2023/05/27 06:52:41;;;;;;;28.27;15.85;;;;;;;-142.57;100.00;115900.28;4907403;29;20124;-87
2023/05/27 06:55:09;;;;;;;27.60;15.38;;;;;;;-142.57;100.00;115900.28;4911305;29;20096;-86
2023/05/27 06:57:54;;;;;;;21.98;14.13;;;;;;;-142.57;100.00;115900.28;4908909;28;20063;-88
2023/05/27 07:00:28;;;;;;;23.95;14.73;;;;;;;-142.57;100.00;115900.28;4892095;29;20047;-87
2023/05/27 07:03:13;;;;;;;21.63;14.65;;;;;;;-142.57;100.00;115900.28;4907296;29;20032;-91
2023/05/27 07:05:44;;;;;;;25.33;16.38;;;;;;;-142.57;100.00;115900.28;4922988;28;20029;-91
2023/05/27 07:08:12;;;;;;;20.55;15.43;;;;;;;-142.57;100.00;115900.28;4889896;29;20038;-90
2023/05/27 07:10:39;;;;;;;22.45;15.45;;;;;;;-142.57;100.00;115900.28;4906332;29;20061;-90
2023/05/27 07:13:05;;;;;;;28.52;16.35;;;;;;;-142.57;100.00;115900.28;4890593;28;20044;-88
2023/05/27 07:15:46;;;;;;;24.30;15.18;;;;;;;-142.57;100.00;115900.28;4891455;29;20157;-91
2023/05/27 07:18:22;;;;;;;21.05;14.02;;;;;;;-142.57;100.00;115900.28;4920240;29;20033;-92
2023/05/27 07:20:56;;;;;;;27.40;12.85;;;;;;;-142.57;100.00;115900.28;4902080;29;20028;-91
2023/05/27 07:23:26;;;;;;;18.88;12.00;;;;;;;-142.57;100.00;115900.28;4884572;29;20064;-91
2023/05/27 07:26:03;;;;;;;22.48;12.50;;;;;;;-142.57;100.00;115900.28;4887755;29;20039;-91
2023/05/27 07:28:32;;;;;;;20.83;13.32;;;;;;;-142.57;100.00;115900.28;4899381;29;20043;-87
2023/05/27 07:31:09;;;;;;;21.48;13.32;;;;;;;-142.57;100.00;115900.28;4897537;29;20043;-86
2023/05/27 07:33:41;;;;;;;22.10;13.40;;;;;;;-142.57;100.00;115900.28;4895102;29;20041;-86
2023/05/27 07:36:07;;;;;;;19.55;11.85;;;;;;;-142.57;100.00;115900.28;4894232;29;20073;-85
2023/05/27 07:38:33;;;;;;;35.03;12.90;;;;;;;-142.57;100.00;115900.28;4895536;29;20036;-86
2023/05/27 07:40:58;;;;;;;21.70;11.98;;;;;;;-142.57;100.00;115900.28;4877038;29;20044;-87
2023/05/27 07:43:24;;;;;;;24.60;12.32;;;;;;;-142.57;100.00;115900.28;4889714;29;20033;-85
2023/05/27 07:45:51;;;;;;;26.20;12.57;;;;;;;-142.57;100.00;115900.28;4885261;29;20040;-86
2023/05/27 07:48:17;;;;;;;25.08;13.32;;;;;;;-142.57;100.00;115900.28;4885696;29;20044;-85
2023/05/27 07:50:43;;;;;;;22.83;12.80;;;;;;;-142.57;100.00;115900.28;4887386;29;20112;-84
2023/05/27 07:53:14;;;;;;;24.90;13.27;;;;;;;-142.57;100.00;115900.28;4885397;29;20032;-84
2023/05/27 07:55:40;;;;;;;21.83;12.27;;;;;;;-142.57;100.00;115900.28;4884040;29;20036;-84
2023/05/27 07:58:06;;;;;;;21.67;12.48;;;;;;;-142.57;100.00;115900.28;4887837;29;20047;-81
2023/05/27 08:00:45;;;;;;;18.20;11.90;;;;;;;-142.57;100.00;115900.28;4886735;29;20032;-88
2023/05/27 08:03:11;;;;;;;53.72;14.90;;;;;;;-142.57;100.00;115900.28;4889939;29;20020;-87
2023/05/27 08:06:01;;;;;;;26.67;11.27;;;;;;;-142.57;100.00;115900.28;4916371;28;20041;-85
2023/05/27 08:08:39;;;;;;;28.02;12.15;;;;;;;-142.57;100.00;115900.28;4883493;29;20066;-85
2023/05/27 08:11:15;;;;;;;21.08;11.90;;;;;;;-142.57;100.00;115900.28;4888296;29;20040;-87
2023/05/27 08:14:04;;;;;;;20.23;11.27;;;;;;;-142.57;100.00;115900.28;4900427;29;20561;-86
2023/05/27 08:16:48;;;;;;;20.30;11.20;;;;;;;-142.57;100.00;115900.28;4917723;29;20104;-88
2023/05/27 08:19:28;;;;;;;23.98;13.05;;;;;;;-142.57;100.00;115900.28;4889609;29;20035;-85
2023/05/27 08:22:01;;;;;;;20.13;11.00;;;;;;;-142.57;100.00;115900.28;4904034;29;20028;-86
2023/05/27 08:25:00;;;;;;;19.98;10.68;;;;;;;-142.57;100.00;115900.28;4847785;29;20067;-87
2023/05/27 08:28:01;;;;;;;20.98;11.35;;;;;;;-142.57;100.00;115900.28;4890601;29;20068;-87
2023/05/27 08:30:34;;;;;;;18.55;11.80;;;;;;;-142.57;100.00;115900.28;4903859;29;20029;-85
2023/05/27 08:33:07;;;;;;;22.52;12.77;;;;;;;-142.57;100.00;115900.28;4901067;29;20076;-87
2023/05/27 08:35:36;;;;;;;24.55;13.35;;;;;;;-142.57;100.00;115900.28;4897708;29;20044;-87
2023/05/27 08:38:02;;;;;;;22.15;12.82;;;;;;;-142.57;100.00;115900.28;4879502;29;20043;-86
2023/05/27 08:40:32;;;;;;;28.30;11.70;;;;;;;-142.57;100.00;115900.28;4890249;29;20040;-83
2023/05/27 08:42:59;;;;;;;27.80;11.88;;;;;;;-142.57;100.00;115900.28;4872688;29;20117;-87
2023/05/27 08:45:28;;;;;;;20.17;11.20;;;;;;;-142.57;100.00;115900.28;4889204;29;20043;-86
2023/05/27 08:47:54;;;;;;;21.73;11.65;;;;;;;-142.57;100.00;115900.28;4886623;29;20112;-88
2023/05/27 08:50:26;;;;;;;21.55;11.20;;;;;;;-142.57;100.00;115900.28;4874518;29;20041;-87
2023/05/27 08:52:54;;;;;;;24.02;11.25;;;;;;;-142.57;100.00;115900.28;4878852;29;20047;-88
2023/05/27 08:55:26;;;;;;;18.77;11.07;;;;;;;-142.57;100.00;115900.28;4883124;29;20048;-85
2023/05/27 08:58:01;;;;;;;18.33;11.65;;;;;;;-142.57;100.00;115900.28;4895584;29;20040;-87
2023/05/27 09:00:30;;;;;;;20.88;10.98;;;;;;;-142.57;100.00;115900.28;4888165;29;20036;-85
2023/05/27 09:03:02;;;;;;;16.10;10.95;;;;;;;-142.57;100.00;115900.28;4881483;29;20029;-83
2023/05/27 09:05:34;;;;;;;18.42;10.45;;;;;;;-142.57;100.00;115900.28;4887609;29;20044;-86
2023/05/27 09:08:06;;;;;;;23.25;9.88;;;;;;;-142.57;100.00;115900.28;4866323;29;20056;-84
2023/05/27 09:11:16;;;;;;;19.50;10.25;;;;;;;-142.57;100.00;115900.28;4914968;29;20040;-84
2023/05/27 09:13:44;;;;;;;19.23;9.35;;;;;;;-142.57;100.00;115900.28;4918812;29;20107;-85
2023/05/27 09:16:11;;;;;;;25.17;10.75;;;;;;;-142.57;100.00;115900.28;4915973;29;20033;-87
2023/05/27 09:18:37;;;;;;;16.90;9.65;;;;;;;-142.57;100.00;115900.28;4897255;29;20045;-90
2023/05/27 09:21:38;;;;;;;19.33;9.38;;;;;;;-142.57;100.00;115900.28;4917722;28;20056;-90
2023/05/27 09:24:04;;;;;;;15.57;8.55;;;;;;;-142.57;100.00;115900.28;4913295;29;20040;-85
2023/05/27 09:26:33;;;;;;;13.88;9.23;;;;;;;-142.57;100.00;115900.28;4911462;29;20119;-87
2023/05/27 09:29:03;;;;;;;17.13;9.80;;;;;;;-142.57;100.00;115900.28;4893402;29;20092;-90
2023/05/27 09:31:31;;;;;;;;;;;;;;;-142.57;100.00;115900.28;4907708;29;20180;-89
2023/05/27 09:33:56;;;;;;;19.17;9.80;;;;;;;-142.57;100.00;115900.28;4892417;29;19975;-87
2023/05/27 09:36:22;;;;;;;13.57;8.45;;;;;;;-142.57;100.00;115900.28;4893398;29;20044;-87
2023/05/27 09:38:51;;;;;;;17.50;9.18;;;;;;;-142.57;100.00;115900.28;4910044;29;20075;-88
2023/05/27 09:41:24;;;;;;;18.02;9.60;;;;;;;-142.57;100.00;115900.28;4897013;29;20040;-89
2023/05/27 09:43:55;;;;;;;17.08;8.45;;;;;;;-142.57;100.00;115900.28;4894818;29;20032;-87
2023/05/27 09:46:23;;;;;;;20.83;8.13;;;;;;;-142.57;93.56;115900.28;4899508;29;20028;-86
2023/05/27 09:48:49;;;;;;;17.08;8.05;;;;;;;-142.57;93.11;115900.28;4925419;29;20028;-87
2023/05/27 09:51:15;;;;;;;15.00;8.98;;;;;;;-142.57;89.61;115900.28;4925145;29;20040;-88
2023/05/27 09:53:42;;;;;;;12.82;8.35;;;;;;;-142.57;89.04;115900.28;4927888;29;20047;-88
2023/05/27 09:56:07;;;;;;;17.55;8.43;;;;;;;-142.57;88.12;115900.28;4929445;29;20060;-87
2023/05/27 09:58:33;;;;;;;14.65;7.82;;;;;;;-142.57;87.25;115900.28;4916708;29;20036;-90
2023/05/27 10:00:59;;;;;;;11.73;8.18;;;;;;;-142.57;86.27;115900.28;4888937;29;20044;-89
2023/05/27 10:03:34;;;;;;;12.45;7.03;;;;;;;-142.57;84.83;115900.28;4901289;29;20044;-89
2023/05/27 10:06:01;;;;;;;12.98;6.55;;;;;;;-142.57;79.72;115900.28;4871215;29;20549;-90
2023/05/27 10:08:31;;;;;;;12.10;6.45;;;;;;;-142.57;79.38;115900.28;4887037;29;20044;-89
2023/05/27 10:11:17;;;;;;;15.45;6.40;;;;;;;-142.57;77.34;115900.28;4904386;29;20149;-90
2023/05/27 10:16:58;;;;;;;11.35;6.88;;;;;;;-142.57;76.47;115900.28;4902939;29;20079;-86
2023/05/27 10:19:24;;;;;;;10.43;6.47;;;;;;;-142.57;76.59;115900.28;4896603;29;20076;-85
2023/05/27 10:21:51;;;;;;;10.98;6.40;;;;;;;-142.57;75.72;115900.28;4880792;29;20040;-85
2023/05/27 10:24:17;;;;;;;14.98;5.63;;;;;;;-142.57;73.16;115900.28;4882496;29;20033;-87
2023/05/27 10:26:45;;;;;;;14.93;5.70;;;;;;;-142.57;75.25;115900.28;4916162;29;20088;-89
2023/05/27 10:29:16;;;;;;;11.32;5.97;;;;;;;-142.57;75.04;115900.28;4898727;29;20044;-89
2023/05/27 10:31:50;;;;;;;13.98;6.68;;;;;;;-142.57;72.72;115900.28;4903243;29;20036;-88
2023/05/27 10:34:17;;;;;;;10.50;6.28;;;;;;;-142.57;73.39;115900.28;4905005;29;20065;-88
2023/05/27 10:36:45;;;;;;;14.23;5.32;;;;;;;-142.57;72.07;115900.28;4888899;29;20032;-86
2023/05/27 10:39:18;;;;;;;10.82;5.43;;;;;;;-142.57;72.48;115900.28;4890211;29;20048;-86
2023/05/27 10:41:52;;;;;;;13.25;5.75;;;;;;;-142.57;72.89;115900.28;4889205;29;20048;-89
2023/05/27 10:44:34;;;;;;;11.45;6.10;;;;;;;-142.57;70.05;115900.28;4920594;29;20037;-90
2023/05/27 10:47:08;;;;;;;12.65;5.82;;;;;;;-142.57;70.60;115900.28;4920131;29;20040;-86
2023/05/27 10:49:39;;;;;;;13.80;5.57;;;;;;;-142.57;68.14;115900.28;4905194;29;20054;-84
2023/05/27 10:52:13;;;;;;;9.95;5.22;;;;;;;-142.57;68.03;115900.28;4921071;29;20562;-86
2023/05/27 10:54:45;;;;;;;13.52;4.57;;;;;;;-142.57;69.30;115900.28;4903850;29;20051;-84
2023/05/27 10:57:12;;;;;;;7.53;5.00;;;;;;;-142.57;67.83;115900.28;4921710;29;20043;-84
2023/05/27 10:59:45;;;;;;;8.15;5.13;;;;;;;-142.57;63.18;115900.28;4920433;29;20025;-85
2023/05/27 11:02:11;;;;;;;7.28;4.20;;;;;;;-142.57;63.13;115900.28;4921809;29;20056;-85
2023/05/27 11:04:37;;;;;;;7.85;4.45;;;;;;;-142.57;62.33;115900.28;4890686;29;20048;-84
2023/05/27 11:07:04;;;;;;;9.63;4.82;;;;;;;-142.57;62.49;115900.28;4888826;29;20048;-81